ASN logo
ASN Wikibase Occurrence # 227897
Last updated: 6 November 2019
This information is added by users of ASN. Neither ASN nor the Flight Safety Foundation are responsible for the completeness or correctness of this information. If you feel this information is incomplete or incorrect, you can submit corrected information.

Date:02-AUG-2019
Time:16:37 LT
Type:Silhouette image of generic AT72 model; specific model in this crash may look slightly different
ATR 72-600 (72-212A)
Owner/operator:Golden Myanmar Airlines
Registration: XY-AJM
C/n / msn: 1148
Fatalities:Fatalities: 0 / Occupants: 71
Other fatalities:0
Aircraft damage: Minor
Category:Serious incident
Location:Yangon-Mingaladon Airport (RGN) -   Myanmar
Phase: Landing
Nature:Domestic Scheduled Passenger
Departure airport:Mandalay-Annisaton Airport (MDL/VYMD)
Destination airport:Yangon-Mingaladon Airport (RGN/VYYY)
Narrative:
Golden Myanmar Airlines Flight Y5-506, an ATR 72-600, XY-AJM, sustained minor damaged in a landing mishap at Yangon-Mingaladon Airport (RGN).
Myanmar's DCA (Directorate of Civil Aviation) reported the landing gear failed while landing in Yangon at 16:37L, the runway needed to be closed for a couple of hours. A heavy downpour took place at the time of landing.

The airport was able to re-open about 2 hours after landing.

Metars (incident time was 1007Z):
VYYY 021100Z 21008KT 5000 RA BKN013 FEW018CB OVC100 26/26 Q1005=
VYYY 021030Z 21008KT 4000 RA BKN013 FEW018CB BKN090 26/26 Q1004 TEMPO 5000 -RA=
VYYY 021000Z 21009KT 3000 RA BKN013 FEW018CB BKN090 26/26 Q1004 TEMPO 5000 -RA=
VYYY 020930Z 22005G15KT 3000 RA BKN013 FEW018CB BKN090 27/27 Q1004 TEMPO 5000 -RA=
VYYY 020900Z 22005G15KT 3000 RA BKN013 FEW018CB BKN090 30/25 Q1004 TEMPO 5000 -RA=
VYYY 020837Z 21005KT 6000 DZ BKN012 FEW016CB BKN090 30/25 Q1004 NOSIG=

Sources:

https://www.mmtimes.com/news/flights-yangon-cancelled-due-landing-mishap.html
Myanmar's DCA
https://www.bea.aero/en/investigation-reports/notified-events/detail/event/serious-incident-to-the-atr-72-registered-xy-ajm-and-operated-by-golden-myanmar-airlines-survenu-le/


Images:


Photo: Smk

Revision history:

Date/timeContributorUpdates
04-Aug-2019 22:24 Captain Adam Added
10-Aug-2019 13:46 harro Updated [Source, Narrative, Photo]
10-Aug-2019 13:47 harro Updated [Time, Aircraft type, Departure airport, Destination airport, Narrative]
16-Aug-2019 17:28 harro Updated [Source, Damage, Narrative]

Corrections or additions? ... Edit this accident description